Pays
Station

 

Conditions  météo  pour  Dakar/Yoff  -  Sénégal    Sénégal

  
27 °C
    
 
 

METAR pour Dakar/Yoff :

GOOY 162000Z 30004KT 8000 SCT013 27/25 Q1014

 

Voici le bulletin pour Dakar/Yoff - Sénégal.
 
Le bulletin a été fait il y a 5 minutes, à 20:00 UTC .
Le vent soufflait à la vitesse de 2.1 mètres par seconde de Ouest/Nord-ouest (300°).
 
La température était de 27 °C, avec un point de rosée à 25 °C.
La température ressentie était de 31 °C.
 
La pression atmosphérique était de 1014 hPa.
L'humidité relative était de 88.8%.
 
Il y avait 3 à 4/8ème de nébulosité à une hauteur de 396 mètres.
 
La visibilité globale était de 8.0 kilomètres.
 

 
 
 

Pays :   A   B   C   D   E   F   G   H   I   J   K   L   M   N   O   P   Q   R   S   T   U   V   W   Y   Z

 

Partenaires :  Info Météo avec Met'info
Météo Marine avec MeteoMarine.net
Infos Site  |  Infos Légales  |  Crédits  |  Confidentialité
Contactez-nous  |  Ajouter aux favoris
© 2013-2018 METAR - Tous droits réservés